sensor_id;sensor_type;location;lat;lon;timestamp;P1;durP1;ratioP1;P2;durP2;ratioP2
5559;SDS011;2803;47.916;8.074;2024-01-15T00:00:50;36.77;;;13.60;;
5559;SDS011;2803;47.916;8.074;2024-01-15T00:03:18;42.20;;;15.50;;
5559;SDS011;2803;47.916;8.074;2024-01-15T00:05:45;44.47;;;15.50;;
5559;SDS011;2803;47.916;8.074;2024-01-15T00:08:11;49.23;;;16.47;;
5559;SDS011;2803;47.916;8.074;2024-01-15T00:10:38;35.20;;;14.27;;
5559;SDS011;2803;47.916;8.074;2024-01-15T00:13:06;49.67;;;16.70;;
5559;SDS011;2803;47.916;8.074;2024-01-15T00:15:32;47.60;;;14.97;;
5559;SDS011;2803;47.916;8.074;2024-01-15T00:17:59;38.97;;;15.60;;
5559;SDS011;2803;47.916;8.074;2024-01-15T00:20:27;41.33;;;15.10;;
5559;SDS011;2803;47.916;8.074;2024-01-15T00:22:53;40.57;;;15.20;;
5559;SDS011;2803;47.916;8.074;2024-01-15T00:25:20;38.30;;;14.70;;
5559;SDS011;2803;47.916;8.074;2024-01-15T00:27:47;38.10;;;14.83;;
5559;SDS011;2803;47.916;8.074;2024-01-15T00:30:14;46.60;;;14.67;;
5559;SDS011;2803;47.916;8.074;2024-01-15T00:32:40;45.13;;;14.50;;
5559;SDS011;2803;47.916;8.074;2024-01-15T00:35:07;41.83;;;15.37;;
5559;SDS011;2803;47.916;8.074;2024-01-15T00:37:35;40.93;;;15.00;;
5559;SDS011;2803;47.916;8.074;2024-01-15T00:40:02;39.33;;;13.73;;
5559;SDS011;2803;47.916;8.074;2024-01-15T00:42:29;37.00;;;13.33;;
5559;SDS011;2803;47.916;8.074;2024-01-15T00:44:55;33.83;;;13.30;;
5559;SDS011;2803;47.916;8.074;2024-01-15T00:47:22;35.83;;;13.63;;
5559;SDS011;2803;47.916;8.074;2024-01-15T00:49:49;38.03;;;13.70;;
5559;SDS011;2803;47.916;8.074;2024-01-15T00:52:15;37.67;;;13.03;;
5559;SDS011;2803;47.916;8.074;2024-01-15T00:54:43;37.90;;;13.20;;
5559;SDS011;2803;47.916;8.074;2024-01-15T00:57:09;37.70;;;12.80;;
5559;SDS011;2803;47.916;8.074;2024-01-15T00:59:36;34.47;;;12.27;;
5559;SDS011;2803;47.916;8.074;2024-01-15T01:02:03;41.17;;;14.03;;
5559;SDS011;2803;47.916;8.074;2024-01-15T01:04:29;34.87;;;11.50;;
5559;SDS011;2803;47.916;8.074;2024-01-15T01:06:56;37.07;;;12.47;;
5559;SDS011;2803;47.916;8.074;2024-01-15T01:09:22;34.97;;;10.87;;
5559;SDS011;2803;47.916;8.074;2024-01-15T01:11:50;32.40;;;12.00;;
5559;SDS011;2803;47.916;8.074;2024-01-15T01:14:17;36.53;;;11.53;;
5559;SDS011;2803;47.916;8.074;2024-01-15T01:16:44;25.27;;;10.40;;
5559;SDS011;2803;47.916;8.074;2024-01-15T01:19:10;25.93;;;9.50;;
5559;SDS011;2803;47.916;8.074;2024-01-15T01:21:37;30.73;;;9.80;;
5559;SDS011;2803;47.916;8.074;2024-01-15T01:24:03;24.90;;;10.53;;
5559;SDS011;2803;47.916;8.074;2024-01-15T01:26:30;30.23;;;10.80;;
5559;SDS011;2803;47.916;8.074;2024-01-15T01:28:58;21.00;;;8.83;;
5559;SDS011;2803;47.916;8.074;2024-01-15T01:31:26;29.23;;;10.63;;
5559;SDS011;2803;47.916;8.074;2024-01-15T01:33:52;27.67;;;11.37;;
5559;SDS011;2803;47.916;8.074;2024-01-15T01:36:19;21.50;;;8.90;;
5559;SDS011;2803;47.916;8.074;2024-01-15T01:38:46;23.77;;;8.47;;
5559;SDS011;2803;47.916;8.074;2024-01-15T01:41:12;27.23;;;9.83;;
5559;SDS011;2803;47.916;8.074;2024-01-15T01:43:39;27.60;;;9.13;;
5559;SDS011;2803;47.916;8.074;2024-01-15T01:46:07;21.77;;;9.33;;
5559;SDS011;2803;47.916;8.074;2024-01-15T01:48:34;27.43;;;8.63;;
5559;SDS011;2803;47.916;8.074;2024-01-15T01:51:02;21.10;;;8.57;;
5559;SDS011;2803;47.916;8.074;2024-01-15T01:53:31;22.60;;;8.33;;
5559;SDS011;2803;47.916;8.074;2024-01-15T01:56:00;21.57;;;8.53;;
5559;SDS011;2803;47.916;8.074;2024-01-15T01:58:28;19.50;;;6.60;;
5559;SDS011;2803;47.916;8.074;2024-01-15T02:00:55;23.57;;;8.00;;
5559;SDS011;2803;47.916;8.074;2024-01-15T02:03:25;16.33;;;6.40;;
5559;SDS011;2803;47.916;8.074;2024-01-15T02:05:52;16.37;;;5.83;;
5559;SDS011;2803;47.916;8.074;2024-01-15T02:08:19;16.27;;;5.83;;
5559;SDS011;2803;47.916;8.074;2024-01-15T02:10:46;16.83;;;6.33;;
5559;SDS011;2803;47.916;8.074;2024-01-15T02:13:13;13.93;;;6.30;;
5559;SDS011;2803;47.916;8.074;2024-01-15T02:15:40;14.40;;;5.83;;
5559;SDS011;2803;47.916;8.074;2024-01-15T02:18:07;12.67;;;5.67;;
5559;SDS011;2803;47.916;8.074;2024-01-15T02:20:35;9.30;;;4.40;;
5559;SDS011;2803;47.916;8.074;2024-01-15T02:23:06;10.23;;;4.40;;
5559;SDS011;2803;47.916;8.074;2024-01-15T02:25:35;8.63;;;3.50;;
5559;SDS011;2803;47.916;8.074;2024-01-15T02:28:03;5.90;;;2.63;;
5559;SDS011;2803;47.916;8.074;2024-01-15T02:30:30;7.00;;;2.90;;
5559;SDS011;2803;47.916;8.074;2024-01-15T02:32:57;6.80;;;2.77;;
5559;SDS011;2803;47.916;8.074;2024-01-15T02:35:24;9.33;;;2.90;;
5559;SDS011;2803;47.916;8.074;2024-01-15T02:37:50;5.10;;;2.40;;
5559;SDS011;2803;47.916;8.074;2024-01-15T02:40:18;5.67;;;2.53;;
5559;SDS011;2803;47.916;8.074;2024-01-15T02:42:45;4.70;;;2.23;;
5559;SDS011;2803;47.916;8.074;2024-01-15T02:45:11;6.83;;;2.23;;
5559;SDS011;2803;47.916;8.074;2024-01-15T02:47:38;4.43;;;1.80;;
5559;SDS011;2803;47.916;8.074;2024-01-15T02:50:05;3.60;;;2.07;;
5559;SDS011;2803;47.916;8.074;2024-01-15T02:52:32;2.77;;;1.50;;
5559;SDS011;2803;47.916;8.074;2024-01-15T02:54:58;7.10;;;2.33;;
5559;SDS011;2803;47.916;8.074;2024-01-15T02:57:26;3.10;;;1.73;;
5559;SDS011;2803;47.916;8.074;2024-01-15T02:59:53;3.50;;;1.80;;
5559;SDS011;2803;47.916;8.074;2024-01-15T03:02:20;5.27;;;2.20;;
5559;SDS011;2803;47.916;8.074;2024-01-15T03:04:47;3.87;;;1.57;;
5559;SDS011;2803;47.916;8.074;2024-01-15T03:07:14;2.83;;;1.40;;
5559;SDS011;2803;47.916;8.074;2024-01-15T03:09:41;3.30;;;1.37;;
5559;SDS011;2803;47.916;8.074;2024-01-15T03:12:08;4.13;;;1.70;;
5559;SDS011;2803;47.916;8.074;2024-01-15T03:14:37;2.73;;;1.50;;
5559;SDS011;2803;47.916;8.074;2024-01-15T03:17:03;5.43;;;1.73;;
5559;SDS011;2803;47.916;8.074;2024-01-15T03:19:30;3.13;;;1.57;;
5559;SDS011;2803;47.916;8.074;2024-01-15T03:21:56;3.33;;;1.87;;
5559;SDS011;2803;47.916;8.074;2024-01-15T03:24:25;2.63;;;1.43;;
5559;SDS011;2803;47.916;8.074;2024-01-15T03:26:52;3.70;;;1.83;;
5559;SDS011;2803;47.916;8.074;2024-01-15T03:29:19;3.00;;;1.70;;
5559;SDS011;2803;47.916;8.074;2024-01-15T03:31:47;2.20;;;1.70;;
5559;SDS011;2803;47.916;8.074;2024-01-15T03:34:14;3.53;;;1.93;;
5559;SDS011;2803;47.916;8.074;2024-01-15T03:36:40;5.13;;;2.17;;
5559;SDS011;2803;47.916;8.074;2024-01-15T03:39:07;5.40;;;2.17;;
5559;SDS011;2803;47.916;8.074;2024-01-15T03:41:33;2.80;;;1.50;;
5559;SDS011;2803;47.916;8.074;2024-01-15T03:44:01;3.30;;;1.70;;
5559;SDS011;2803;47.916;8.074;2024-01-15T03:46:28;5.80;;;2.03;;
5559;SDS011;2803;47.916;8.074;2024-01-15T03:48:55;3.73;;;1.87;;
5559;SDS011;2803;47.916;8.074;2024-01-15T03:51:22;3.73;;;1.90;;
5559;SDS011;2803;47.916;8.074;2024-01-15T03:53:50;4.80;;;2.17;;
5559;SDS011;2803;47.916;8.074;2024-01-15T03:56:17;5.30;;;2.00;;
5559;SDS011;2803;47.916;8.074;2024-01-15T03:58:43;5.27;;;2.40;;
5559;SDS011;2803;47.916;8.074;2024-01-15T04:01:10;8.07;;;2.20;;
5559;SDS011;2803;47.916;8.074;2024-01-15T04:03:37;4.43;;;2.07;;
5559;SDS011;2803;47.916;8.074;2024-01-15T04:06:05;5.13;;;1.97;;
5559;SDS011;2803;47.916;8.074;2024-01-15T04:08:32;6.63;;;2.60;;
5559;SDS011;2803;47.916;8.074;2024-01-15T04:10:58;4.43;;;1.83;;
5559;SDS011;2803;47.916;8.074;2024-01-15T04:13:26;6.53;;;2.03;;
5559;SDS011;2803;47.916;8.074;2024-01-15T04:15:53;4.60;;;2.27;;
5559;SDS011;2803;47.916;8.074;2024-01-15T04:18:19;5.77;;;2.17;;
5559;SDS011;2803;47.916;8.074;2024-01-15T04:20:46;4.43;;;2.23;;
5559;SDS011;2803;47.916;8.074;2024-01-15T04:23:14;4.87;;;2.27;;
5559;SDS011;2803;47.916;8.074;2024-01-15T04:25:40;3.80;;;2.10;;
5559;SDS011;2803;47.916;8.074;2024-01-15T04:28:07;5.70;;;2.27;;
5559;SDS011;2803;47.916;8.074;2024-01-15T04:30:34;5.10;;;2.20;;
5559;SDS011;2803;47.916;8.074;2024-01-15T04:33:01;5.80;;;2.30;;
5559;SDS011;2803;47.916;8.074;2024-01-15T04:35:28;3.97;;;2.00;;
5559;SDS011;2803;47.916;8.074;2024-01-15T04:37:56;2.67;;;1.67;;
5559;SDS011;2803;47.916;8.074;2024-01-15T04:40:24;3.33;;;1.63;;
5559;SDS011;2803;47.916;8.074;2024-01-15T04:42:52;4.20;;;2.10;;
5559;SDS011;2803;47.916;8.074;2024-01-15T04:45:19;4.80;;;2.20;;
5559;SDS011;2803;47.916;8.074;2024-01-15T04:47:47;5.00;;;2.50;;
5559;SDS011;2803;47.916;8.074;2024-01-15T04:50:14;6.80;;;2.53;;
5559;SDS011;2803;47.916;8.074;2024-01-15T04:52:41;4.00;;;2.23;;
5559;SDS011;2803;47.916;8.074;2024-01-15T04:55:07;4.80;;;2.50;;
5559;SDS011;2803;47.916;8.074;2024-01-15T04:57:35;5.20;;;2.90;;
5559;SDS011;2803;47.916;8.074;2024-01-15T05:00:02;9.20;;;3.10;;
5559;SDS011;2803;47.916;8.074;2024-01-15T05:02:30;6.63;;;3.37;;
5559;SDS011;2803;47.916;8.074;2024-01-15T05:04:56;10.60;;;3.30;;
5559;SDS011;2803;47.916;8.074;2024-01-15T05:07:23;8.37;;;3.13;;
5559;SDS011;2803;47.916;8.074;2024-01-15T05:09:49;9.50;;;4.07;;
5559;SDS011;2803;47.916;8.074;2024-01-15T05:12:16;12.17;;;4.40;;
5559;SDS011;2803;47.916;8.074;2024-01-15T05:14:44;11.17;;;4.67;;
5559;SDS011;2803;47.916;8.074;2024-01-15T05:17:10;12.80;;;4.40;;
5559;SDS011;2803;47.916;8.074;2024-01-15T05:19:37;12.87;;;4.77;;
5559;SDS011;2803;47.916;8.074;2024-01-15T05:22:04;13.87;;;5.20;;
5559;SDS011;2803;47.916;8.074;2024-01-15T05:24:30;14.97;;;5.40;;
5559;SDS011;2803;47.916;8.074;2024-01-15T05:26:57;16.43;;;6.50;;
5559;SDS011;2803;47.916;8.074;2024-01-15T05:29:24;21.27;;;6.90;;
5559;SDS011;2803;47.916;8.074;2024-01-15T05:31:53;16.23;;;6.70;;
5559;SDS011;2803;47.916;8.074;2024-01-15T05:34:19;27.63;;;7.70;;
5559;SDS011;2803;47.916;8.074;2024-01-15T05:36:46;25.20;;;8.30;;
5559;SDS011;2803;47.916;8.074;2024-01-15T05:39:13;27.23;;;9.20;;
5559;SDS011;2803;47.916;8.074;2024-01-15T05:41:40;24.93;;;9.67;;
5559;SDS011;2803;47.916;8.074;2024-01-15T05:44:06;24.17;;;8.80;;
5559;SDS011;2803;47.916;8.074;2024-01-15T05:46:33;27.20;;;10.10;;
5559;SDS011;2803;47.916;8.074;2024-01-15T05:49:01;24.07;;;8.30;;
5559;SDS011;2803;47.916;8.074;2024-01-15T05:51:27;24.17;;;7.27;;
5559;SDS011;2803;47.916;8.074;2024-01-15T05:53:54;19.40;;;7.47;;
5559;SDS011;2803;47.916;8.074;2024-01-15T05:56:20;25.53;;;8.20;;
5559;SDS011;2803;47.916;8.074;2024-01-15T05:58:49;19.80;;;7.67;;
5559;SDS011;2803;47.916;8.074;2024-01-15T06:01:15;27.57;;;7.90;;
5559;SDS011;2803;47.916;8.074;2024-01-15T06:03:42;21.60;;;7.60;;
5559;SDS011;2803;47.916;8.074;2024-01-15T06:06:10;25.23;;;7.33;;
5559;SDS011;2803;47.916;8.074;2024-01-15T06:08:37;22.70;;;8.33;;
5559;SDS011;2803;47.916;8.074;2024-01-15T06:11:03;22.20;;;8.10;;
5559;SDS011;2803;47.916;8.074;2024-01-15T06:13:31;21.90;;;8.17;;
5559;SDS011;2803;47.916;8.074;2024-01-15T06:15:58;22.13;;;7.80;;
5559;SDS011;2803;47.916;8.074;2024-01-15T06:18:24;22.10;;;8.50;;
5559;SDS011;2803;47.916;8.074;2024-01-15T06:20:52;36.33;;;7.97;;
5559;SDS011;2803;47.916;8.074;2024-01-15T06:23:19;22.53;;;7.03;;
5559;SDS011;2803;47.916;8.074;2024-01-15T06:25:46;18.50;;;7.33;;
5559;SDS011;2803;47.916;8.074;2024-01-15T06:28:13;19.73;;;7.13;;
5559;SDS011;2803;47.916;8.074;2024-01-15T06:30:39;17.37;;;7.27;;
5559;SDS011;2803;47.916;8.074;2024-01-15T06:33:06;17.43;;;6.53;;
5559;SDS011;2803;47.916;8.074;2024-01-15T06:35:32;18.47;;;6.97;;
5559;SDS011;2803;47.916;8.074;2024-01-15T06:38:00;21.17;;;6.80;;
5559;SDS011;2803;47.916;8.074;2024-01-15T06:40:27;19.00;;;7.60;;
5559;SDS011;2803;47.916;8.074;2024-01-15T06:42:54;18.10;;;6.87;;
5559;SDS011;2803;47.916;8.074;2024-01-15T06:45:20;18.57;;;7.03;;
5559;SDS011;2803;47.916;8.074;2024-01-15T06:47:47;28.23;;;7.53;;
5559;SDS011;2803;47.916;8.074;2024-01-15T06:50:14;19.67;;;8.10;;
5559;SDS011;2803;47.916;8.074;2024-01-15T06:52:40;20.33;;;7.27;;
5559;SDS011;2803;47.916;8.074;2024-01-15T06:55:07;17.33;;;6.67;;
5559;SDS011;2803;47.916;8.074;2024-01-15T06:57:35;21.43;;;6.27;;
5559;SDS011;2803;47.916;8.074;2024-01-15T07:00:01;16.33;;;7.10;;
5559;SDS011;2803;47.916;8.074;2024-01-15T07:02:32;15.53;;;5.63;;
5559;SDS011;2803;47.916;8.074;2024-01-15T07:04:59;16.23;;;5.73;;
5559;SDS011;2803;47.916;8.074;2024-01-15T07:07:26;15.20;;;6.50;;
5559;SDS011;2803;47.916;8.074;2024-01-15T07:09:54;17.10;;;5.63;;
5559;SDS011;2803;47.916;8.074;2024-01-15T07:12:21;14.37;;;5.50;;
5559;SDS011;2803;47.916;8.074;2024-01-15T07:14:49;13.53;;;5.20;;
5559;SDS011;2803;47.916;8.074;2024-01-15T07:17:16;17.33;;;6.13;;
5559;SDS011;2803;47.916;8.074;2024-01-15T07:19:42;17.97;;;5.73;;
5559;SDS011;2803;47.916;8.074;2024-01-15T07:22:09;11.30;;;3.83;;
5559;SDS011;2803;47.916;8.074;2024-01-15T07:24:35;17.13;;;5.40;;
5559;SDS011;2803;47.916;8.074;2024-01-15T07:27:02;9.50;;;4.60;;
5559;SDS011;2803;47.916;8.074;2024-01-15T07:29:29;8.20;;;3.53;;
5559;SDS011;2803;47.916;8.074;2024-01-15T07:31:59;8.97;;;3.30;;
5559;SDS011;2803;47.916;8.074;2024-01-15T07:34:25;6.30;;;3.30;;
5559;SDS011;2803;47.916;8.074;2024-01-15T07:36:52;9.10;;;3.70;;
5559;SDS011;2803;47.916;8.074;2024-01-15T07:39:19;9.30;;;3.60;;
5559;SDS011;2803;47.916;8.074;2024-01-15T07:41:45;7.70;;;3.43;;
5559;SDS011;2803;47.916;8.074;2024-01-15T07:44:12;10.83;;;3.00;;
5559;SDS011;2803;47.916;8.074;2024-01-15T07:46:39;9.40;;;3.40;;
5559;SDS011;2803;47.916;8.074;2024-01-15T07:49:11;8.30;;;3.00;;
5559;SDS011;2803;47.916;8.074;2024-01-15T07:51:37;7.33;;;3.70;;
5559;SDS011;2803;47.916;8.074;2024-01-15T07:54:05;9.07;;;3.07;;
5559;SDS011;2803;47.916;8.074;2024-01-15T07:56:32;8.90;;;3.10;;
5559;SDS011;2803;47.916;8.074;2024-01-15T07:58:59;8.10;;;2.90;;
5559;SDS011;2803;47.916;8.074;2024-01-15T08:01:25;6.83;;;3.23;;
5559;SDS011;2803;47.916;8.074;2024-01-15T08:03:52;7.83;;;2.87;;
5559;SDS011;2803;47.916;8.074;2024-01-15T08:06:21;8.90;;;3.50;;
5559;SDS011;2803;47.916;8.074;2024-01-15T08:08:48;9.63;;;3.20;;
5559;SDS011;2803;47.916;8.074;2024-01-15T08:11:14;5.53;;;2.90;;
5559;SDS011;2803;47.916;8.074;2024-01-15T08:13:41;9.53;;;3.47;;
5559;SDS011;2803;47.916;8.074;2024-01-15T08:16:07;7.30;;;2.80;;
5559;SDS011;2803;47.916;8.074;2024-01-15T08:18:34;7.87;;;2.30;;
5559;SDS011;2803;47.916;8.074;2024-01-15T08:21:00;6.63;;;2.93;;
5559;SDS011;2803;47.916;8.074;2024-01-15T08:23:29;8.40;;;3.20;;
5559;SDS011;2803;47.916;8.074;2024-01-15T08:25:56;14.60;;;3.10;;
5559;SDS011;2803;47.916;8.074;2024-01-15T08:28:23;12.20;;;3.30;;
5559;SDS011;2803;47.916;8.074;2024-01-15T08:30:49;5.83;;;3.17;;
5559;SDS011;2803;47.916;8.074;2024-01-15T08:33:16;7.17;;;2.77;;
5559;SDS011;2803;47.916;8.074;2024-01-15T08:35:43;7.07;;;2.60;;
5559;SDS011;2803;47.916;8.074;2024-01-15T08:38:10;6.00;;;2.90;;
5559;SDS011;2803;47.916;8.074;2024-01-15T08:40:38;6.90;;;2.37;;
5559;SDS011;2803;47.916;8.074;2024-01-15T08:43:05;6.10;;;2.23;;
5559;SDS011;2803;47.916;8.074;2024-01-15T08:45:31;3.90;;;2.17;;
5559;SDS011;2803;47.916;8.074;2024-01-15T08:47:58;9.37;;;2.03;;
5559;SDS011;2803;47.916;8.074;2024-01-15T08:50:26;3.83;;;1.93;;
5559;SDS011;2803;47.916;8.074;2024-01-15T08:52:52;4.13;;;2.10;;
5559;SDS011;2803;47.916;8.074;2024-01-15T08:55:19;3.50;;;1.77;;
5559;SDS011;2803;47.916;8.074;2024-01-15T08:57:48;3.53;;;1.83;;
5559;SDS011;2803;47.916;8.074;2024-01-15T09:00:15;2.07;;;1.27;;
5559;SDS011;2803;47.916;8.074;2024-01-15T09:02:44;2.80;;;1.60;;
5559;SDS011;2803;47.916;8.074;2024-01-15T09:05:10;3.90;;;1.90;;
5559;SDS011;2803;47.916;8.074;2024-01-15T09:07:37;5.90;;;1.50;;
5559;SDS011;2803;47.916;8.074;2024-01-15T09:10:04;3.70;;;1.40;;
5559;SDS011;2803;47.916;8.074;2024-01-15T09:12:31;3.37;;;1.50;;
5559;SDS011;2803;47.916;8.074;2024-01-15T09:14:59;4.40;;;1.63;;
5559;SDS011;2803;47.916;8.074;2024-01-15T09:17:29;3.10;;;1.57;;
5559;SDS011;2803;47.916;8.074;2024-01-15T09:19:57;1.50;;;1.10;;
5559;SDS011;2803;47.916;8.074;2024-01-15T09:22:24;6.17;;;2.37;;
5559;SDS011;2803;47.916;8.074;2024-01-15T09:24:50;2.43;;;1.63;;
5559;SDS011;2803;47.916;8.074;2024-01-15T09:27:17;2.83;;;1.60;;
5559;SDS011;2803;47.916;8.074;2024-01-15T09:29:43;2.77;;;1.30;;
5559;SDS011;2803;47.916;8.074;2024-01-15T09:32:12;3.57;;;1.47;;
5559;SDS011;2803;47.916;8.074;2024-01-15T09:34:39;4.70;;;1.33;;
5559;SDS011;2803;47.916;8.074;2024-01-15T09:37:06;2.07;;;1.30;;
5559;SDS011;2803;47.916;8.074;2024-01-15T09:39:33;7.83;;;1.50;;
5559;SDS011;2803;47.916;8.074;2024-01-15T09:41:59;2.80;;;2.20;;
5559;SDS011;2803;47.916;8.074;2024-01-15T09:44:26;1.70;;;1.00;;
5559;SDS011;2803;47.916;8.074;2024-01-15T09:46:54;23.87;;;1.83;;
5559;SDS011;2803;47.916;8.074;2024-01-15T09:49:23;2.37;;;1.43;;
5559;SDS011;2803;47.916;8.074;2024-01-15T09:51:50;3.00;;;1.63;;
5559;SDS011;2803;47.916;8.074;2024-01-15T09:54:17;1.63;;;1.37;;
5559;SDS011;2803;47.916;8.074;2024-01-15T09:56:44;3.23;;;1.20;;
5559;SDS011;2803;47.916;8.074;2024-01-15T09:59:12;38.87;;;12.03;;
5559;SDS011;2803;47.916;8.074;2024-01-15T10:01:42;31.03;;;10.80;;
5559;SDS011;2803;47.916;8.074;2024-01-15T10:04:09;8.20;;;3.23;;
5559;SDS011;2803;47.916;8.074;2024-01-15T10:06:37;4.37;;;2.13;;
5559;SDS011;2803;47.916;8.074;2024-01-15T10:09:04;1.83;;;1.40;;
5559;SDS011;2803;47.916;8.074;2024-01-15T10:11:32;3.13;;;1.50;;
5559;SDS011;2803;47.916;8.074;2024-01-15T10:13:59;1.63;;;1.20;;
5559;SDS011;2803;47.916;8.074;2024-01-15T10:16:26;2.33;;;1.10;;
5559;SDS011;2803;47.916;8.074;2024-01-15T10:18:52;2.23;;;0.90;;
5559;SDS011;2803;47.916;8.074;2024-01-15T10:21:19;1.77;;;1.20;;
5559;SDS011;2803;47.916;8.074;2024-01-15T10:23:47;3.53;;;1.20;;
5559;SDS011;2803;47.916;8.074;2024-01-15T10:26:15;3.17;;;1.23;;
5559;SDS011;2803;47.916;8.074;2024-01-15T10:28:41;2.07;;;1.30;;
5559;SDS011;2803;47.916;8.074;2024-01-15T10:31:08;2.53;;;1.20;;
5559;SDS011;2803;47.916;8.074;2024-01-15T10:33:35;2.13;;;1.27;;
5559;SDS011;2803;47.916;8.074;2024-01-15T10:36:03;9.60;;;1.60;;
5559;SDS011;2803;47.916;8.074;2024-01-15T10:38:35;2.40;;;1.30;;
5559;SDS011;2803;47.916;8.074;2024-01-15T10:41:04;2.10;;;1.70;;
5559;SDS011;2803;47.916;8.074;2024-01-15T10:43:30;3.53;;;1.77;;
5559;SDS011;2803;47.916;8.074;2024-01-15T10:45:57;2.83;;;1.37;;
5559;SDS011;2803;47.916;8.074;2024-01-15T10:48:24;5.50;;;1.70;;
5559;SDS011;2803;47.916;8.074;2024-01-15T10:50:53;3.53;;;1.63;;
5559;SDS011;2803;47.916;8.074;2024-01-15T10:53:20;3.30;;;1.60;;
5559;SDS011;2803;47.916;8.074;2024-01-15T10:55:47;3.10;;;1.60;;
5559;SDS011;2803;47.916;8.074;2024-01-15T10:58:15;3.10;;;1.60;;
5559;SDS011;2803;47.916;8.074;2024-01-15T11:00:43;6.20;;;1.40;;
5559;SDS011;2803;47.916;8.074;2024-01-15T11:03:10;2.70;;;1.40;;
5559;SDS011;2803;47.916;8.074;2024-01-15T11:05:37;4.20;;;2.10;;
5559;SDS011;2803;47.916;8.074;2024-01-15T11:08:05;3.27;;;1.50;;
5559;SDS011;2803;47.916;8.074;2024-01-15T11:10:40;3.03;;;1.67;;
5559;SDS011;2803;47.916;8.074;2024-01-15T11:13:08;4.53;;;1.80;;
5559;SDS011;2803;47.916;8.074;2024-01-15T11:18:22;13.60;;;2.23;;
5559;SDS011;2803;47.916;8.074;2024-01-15T11:23:47;5.00;;;2.07;;
5559;SDS011;2803;47.916;8.074;2024-01-15T11:26:26;4.27;;;2.50;;
5559;SDS011;2803;47.916;8.074;2024-01-15T11:28:54;7.20;;;3.43;;
5559;SDS011;2803;47.916;8.074;2024-01-15T11:31:25;6.70;;;2.87;;
5559;SDS011;2803;47.916;8.074;2024-01-15T11:33:52;9.30;;;2.80;;
5559;SDS011;2803;47.916;8.074;2024-01-15T11:36:20;5.77;;;2.70;;
5559;SDS011;2803;47.916;8.074;2024-01-15T11:38:46;6.20;;;3.00;;
5559;SDS011;2803;47.916;8.074;2024-01-15T11:41:13;6.17;;;2.80;;
5559;SDS011;2803;47.916;8.074;2024-01-15T11:43:41;8.53;;;2.87;;
5559;SDS011;2803;47.916;8.074;2024-01-15T11:46:10;7.57;;;3.17;;
5559;SDS011;2803;47.916;8.074;2024-01-15T11:48:42;5.70;;;2.80;;
5559;SDS011;2803;47.916;8.074;2024-01-15T11:51:10;8.40;;;3.30;;
5559;SDS011;2803;47.916;8.074;2024-01-15T11:53:40;8.60;;;3.47;;
5559;SDS011;2803;47.916;8.074;2024-01-15T11:56:12;6.77;;;3.10;;
5559;SDS011;2803;47.916;8.074;2024-01-15T11:58:41;7.87;;;3.20;;
5559;SDS011;2803;47.916;8.074;2024-01-15T12:01:10;7.83;;;3.17;;
5559;SDS011;2803;47.916;8.074;2024-01-15T12:03:37;5.50;;;2.83;;
5559;SDS011;2803;47.916;8.074;2024-01-15T12:06:06;8.97;;;3.37;;
5559;SDS011;2803;47.916;8.074;2024-01-15T12:08:35;7.20;;;2.73;;
5559;SDS011;2803;47.916;8.074;2024-01-15T12:11:03;9.50;;;3.10;;
5559;SDS011;2803;47.916;8.074;2024-01-15T12:13:32;5.40;;;2.53;;
5559;SDS011;2803;47.916;8.074;2024-01-15T12:16:00;8.17;;;3.20;;
5559;SDS011;2803;47.916;8.074;2024-01-15T12:18:29;5.73;;;3.20;;
5559;SDS011;2803;47.916;8.074;2024-01-15T12:20:55;6.60;;;3.10;;
5559;SDS011;2803;47.916;8.074;2024-01-15T12:23:23;4.60;;;2.53;;
5559;SDS011;2803;47.916;8.074;2024-01-15T12:25:51;4.53;;;2.87;;
5559;SDS011;2803;47.916;8.074;2024-01-15T12:28:18;6.40;;;2.70;;
5559;SDS011;2803;47.916;8.074;2024-01-15T12:30:46;5.10;;;2.50;;
5559;SDS011;2803;47.916;8.074;2024-01-15T12:33:15;11.03;;;3.63;;
5559;SDS011;2803;47.916;8.074;2024-01-15T12:35:43;10.00;;;3.43;;
5559;SDS011;2803;47.916;8.074;2024-01-15T12:38:10;4.97;;;2.70;;
5559;SDS011;2803;47.916;8.074;2024-01-15T12:40:38;4.87;;;3.00;;
5559;SDS011;2803;47.916;8.074;2024-01-15T12:43:05;8.63;;;3.53;;
5559;SDS011;2803;47.916;8.074;2024-01-15T12:45:32;6.50;;;3.17;;
5559;SDS011;2803;47.916;8.074;2024-01-15T12:48:00;8.43;;;2.73;;
5559;SDS011;2803;47.916;8.074;2024-01-15T12:50:29;7.23;;;2.80;;
5559;SDS011;2803;47.916;8.074;2024-01-15T12:52:56;7.47;;;2.80;;
5559;SDS011;2803;47.916;8.074;2024-01-15T12:55:24;5.20;;;2.63;;
5559;SDS011;2803;47.916;8.074;2024-01-15T12:57:52;5.23;;;2.33;;
5559;SDS011;2803;47.916;8.074;2024-01-15T13:00:19;4.87;;;2.50;;
5559;SDS011;2803;47.916;8.074;2024-01-15T13:02:46;7.70;;;2.40;;
5559;SDS011;2803;47.916;8.074;2024-01-15T13:05:14;3.63;;;2.50;;
5559;SDS011;2803;47.916;8.074;2024-01-15T13:07:42;5.73;;;2.57;;
5559;SDS011;2803;47.916;8.074;2024-01-15T13:10:08;6.70;;;2.73;;
5559;SDS011;2803;47.916;8.074;2024-01-15T13:12:37;6.77;;;2.80;;
5559;SDS011;2803;47.916;8.074;2024-01-15T13:15:05;6.93;;;3.80;;
5559;SDS011;2803;47.916;8.074;2024-01-15T13:17:36;6.07;;;2.73;;
5559;SDS011;2803;47.916;8.074;2024-01-15T13:20:03;6.27;;;2.70;;
5559;SDS011;2803;47.916;8.074;2024-01-15T13:22:30;6.50;;;2.27;;
5559;SDS011;2803;47.916;8.074;2024-01-15T13:24:57;5.27;;;2.73;;
5559;SDS011;2803;47.916;8.074;2024-01-15T13:27:23;8.30;;;2.50;;
5559;SDS011;2803;47.916;8.074;2024-01-15T13:29:50;7.10;;;2.70;;
5559;SDS011;2803;47.916;8.074;2024-01-15T13:32:22;8.20;;;2.70;;
5559;SDS011;2803;47.916;8.074;2024-01-15T13:34:51;3.73;;;2.40;;
5559;SDS011;2803;47.916;8.074;2024-01-15T13:37:18;3.83;;;2.23;;
5559;SDS011;2803;47.916;8.074;2024-01-15T13:39:46;4.83;;;2.10;;
5559;SDS011;2803;47.916;8.074;2024-01-15T13:42:13;4.80;;;2.30;;
5559;SDS011;2803;47.916;8.074;2024-01-15T13:44:40;5.70;;;2.33;;
5559;SDS011;2803;47.916;8.074;2024-01-15T13:47:07;5.53;;;2.30;;
5559;SDS011;2803;47.916;8.074;2024-01-15T13:49:35;3.43;;;2.17;;
5559;SDS011;2803;47.916;8.074;2024-01-15T13:52:02;6.13;;;2.47;;
5559;SDS011;2803;47.916;8.074;2024-01-15T13:54:29;7.30;;;2.67;;
5559;SDS011;2803;47.916;8.074;2024-01-15T13:56:56;8.77;;;2.87;;
5559;SDS011;2803;47.916;8.074;2024-01-15T13:59:23;6.00;;;2.93;;
5559;SDS011;2803;47.916;8.074;2024-01-15T14:01:50;6.10;;;2.30;;
5559;SDS011;2803;47.916;8.074;2024-01-15T14:04:17;4.83;;;2.83;;
5559;SDS011;2803;47.916;8.074;2024-01-15T14:06:45;4.17;;;2.70;;
5559;SDS011;2803;47.916;8.074;2024-01-15T14:09:12;5.67;;;2.90;;
5559;SDS011;2803;47.916;8.074;2024-01-15T14:11:39;10.93;;;3.60;;
5559;SDS011;2803;47.916;8.074;2024-01-15T14:14:06;11.73;;;3.80;;
5559;SDS011;2803;47.916;8.074;2024-01-15T14:16:34;6.00;;;3.10;;
5559;SDS011;2803;47.916;8.074;2024-01-15T14:19:00;4.87;;;2.60;;
5559;SDS011;2803;47.916;8.074;2024-01-15T14:21:28;5.00;;;2.77;;
5559;SDS011;2803;47.916;8.074;2024-01-15T14:23:56;18.27;;;3.27;;
5559;SDS011;2803;47.916;8.074;2024-01-15T14:26:22;5.03;;;2.67;;
5559;SDS011;2803;47.916;8.074;2024-01-15T14:28:49;9.13;;;2.77;;
5559;SDS011;2803;47.916;8.074;2024-01-15T14:31:15;7.93;;;2.87;;
5559;SDS011;2803;47.916;8.074;2024-01-15T14:33:42;3.80;;;2.13;;
5559;SDS011;2803;47.916;8.074;2024-01-15T14:36:08;4.50;;;2.17;;
5559;SDS011;2803;47.916;8.074;2024-01-15T14:38:35;4.23;;;2.10;;
5559;SDS011;2803;47.916;8.074;2024-01-15T14:41:03;4.30;;;2.37;;
5559;SDS011;2803;47.916;8.074;2024-01-15T14:43:30;9.73;;;2.40;;
5559;SDS011;2803;47.916;8.074;2024-01-15T14:45:58;5.40;;;2.47;;
5559;SDS011;2803;47.916;8.074;2024-01-15T14:48:26;4.67;;;2.27;;
5559;SDS011;2803;47.916;8.074;2024-01-15T14:50:52;6.37;;;2.80;;
5559;SDS011;2803;47.916;8.074;2024-01-15T14:53:19;5.93;;;2.47;;
5559;SDS011;2803;47.916;8.074;2024-01-15T14:55:46;6.30;;;2.90;;
5559;SDS011;2803;47.916;8.074;2024-01-15T14:58:14;4.27;;;2.63;;
5559;SDS011;2803;47.916;8.074;2024-01-15T15:00:41;4.83;;;2.60;;
5559;SDS011;2803;47.916;8.074;2024-01-15T15:03:07;5.77;;;3.07;;
5559;SDS011;2803;47.916;8.074;2024-01-15T15:05:35;5.33;;;2.63;;
5559;SDS011;2803;47.916;8.074;2024-01-15T15:08:02;5.27;;;2.70;;
5559;SDS011;2803;47.916;8.074;2024-01-15T15:10:33;6.60;;;2.27;;
5559;SDS011;2803;47.916;8.074;2024-01-15T15:13:00;5.43;;;2.47;;
5559;SDS011;2803;47.916;8.074;2024-01-15T15:15:28;5.27;;;2.60;;